Time,TemperatureF,DewpointF,PressureIn,WindDirection,WindDirectionDegrees,WindSpeedMPH,WindSpeedGustMPH,Humidity,HourlyPrecipIn,Conditions,Clouds,dailyrainin,SoftwareType,DateUTC
2013-01-19 00:05:00,32.1,30.0,29.70,NNE,22,6.0,8.0,92,0.01,,,0.00,weatherlink.com 1.10,2013-01-19 05:05:00,
2013-01-19 00:20:00,32.0,30.0,29.70,NNE,16,7.0,7.0,93,0.00,,,0.00,weatherlink.com 1.10,2013-01-19 05:20:00,
2013-01-19 00:35:00,31.2,29.0,29.71,NNE,13,6.0,11.0,93,0.00,,,0.00,weatherlink.com 1.10,2013-01-19 05:35:00,
2013-01-19 00:50:00,30.8,29.0,29.71,NNE,19,7.0,9.0,93,0.00,,,0.00,weatherlink.com 1.10,2013-01-19 05:50:00,
2013-01-19 01:05:00,30.6,29.0,29.70,North,11,11.0,14.0,93,0.00,,,0.00,weatherlink.com 1.10,2013-01-19 06:05:00,
2013-01-19 01:20:00,30.2,29.0,29.70,NNE,29,7.0,11.0,93,0.00,,,0.00,weatherlink.com 1.10,2013-01-19 06:20:00,
2013-01-19 01:35:00,30.1,28.0,29.70,North,355,7.0,13.0,93,0.00,,,0.00,weatherlink.com 1.10,2013-01-19 06:35:00,
2013-01-19 01:50:00,29.9,28.0,29.70,North,355,9.0,11.0,92,0.00,,,0.00,weatherlink.com 1.10,2013-01-19 06:50:00,
2013-01-19 02:05:00,29.7,28.0,29.71,NNE,18,7.0,11.0,92,0.00,,,0.00,weatherlink.com 1.10,2013-01-19 07:05:00,
2013-01-19 02:20:00,29.6,27.0,29.71,NNE,32,8.0,11.0,91,0.00,,,0.00,weatherlink.com 1.10,2013-01-19 07:20:00,
2013-01-19 02:35:00,29.5,27.0,29.72,NNE,20,8.0,10.0,91,0.00,,,0.00,weatherlink.com 1.10,2013-01-19 07:35:00,
2013-01-19 02:50:00,29.6,27.0,29.73,NNE,17,9.0,13.0,91,0.00,,,0.00,weatherlink.com 1.10,2013-01-19 07:50:00,
2013-01-19 03:05:00,29.4,27.0,29.73,North,5,7.0,11.0,90,0.00,,,0.00,weatherlink.com 1.10,2013-01-19 08:05:00,
2013-01-19 03:20:00,28.9,27.0,29.74,NNE,19,8.0,11.0,91,0.00,,,0.00,weatherlink.com 1.10,2013-01-19 08:20:00,
2013-01-19 03:35:00,28.6,26.0,29.74,NNE,27,3.0,8.0,91,0.00,,,0.00,weatherlink.com 1.10,2013-01-19 08:35:00,
2013-01-19 03:50:00,28.6,27.0,29.74,NNE,24,4.0,7.0,92,0.00,,,0.00,weatherlink.com 1.10,2013-01-19 08:50:00,
2013-01-19 04:05:00,28.6,27.0,29.74,NNE,24,3.0,6.0,92,0.00,,,0.00,weatherlink.com 1.10,2013-01-19 09:05:00,
2013-01-19 04:20:00,28.7,27.0,29.74,North,350,4.0,6.0,92,0.00,,,0.00,weatherlink.com 1.10,2013-01-19 09:20:00,
2013-01-19 04:35:00,28.8,27.0,29.74,North,350,4.0,5.0,92,0.00,,,0.00,weatherlink.com 1.10,2013-01-19 09:35:00,
2013-01-19 04:50:00,29.0,27.0,29.73,North,350,3.0,5.0,92,0.00,,,0.00,weatherlink.com 1.10,2013-01-19 09:50:00,
2013-01-19 05:05:00,29.0,27.0,29.74,North,350,5.0,5.0,92,0.00,,,0.00,weatherlink.com 1.10,2013-01-19 10:05:00,
2013-01-19 05:20:00,29.2,27.0,29.75,NNW,331,2.0,5.0,92,0.00,,,0.00,weatherlink.com 1.10,2013-01-19 10:20:00,
2013-01-19 05:35:00,29.4,27.0,29.74,NNW,331,3.0,5.0,92,0.00,,,0.00,weatherlink.com 1.10,2013-01-19 10:35:00,
2013-01-19 05:50:00,29.5,28.0,29.75,NW,321,3.0,6.0,92,0.00,,,0.00,weatherlink.com 1.10,2013-01-19 10:50:00,
2013-01-19 06:05:00,29.7,28.0,29.75,NW,321,3.0,7.0,92,0.00,,,0.00,weatherlink.com 1.10,2013-01-19 11:05:00,
2013-01-19 07:50:00,30.7,28.0,29.78,NW,326,5.0,9.0,90,0.00,,,0.00,weatherlink.com 1.10,2013-01-19 12:50:00,
2013-01-19 08:05:00,30.1,28.0,29.77,NNE,15,6.0,7.0,90,0.00,,,0.00,weatherlink.com 1.10,2013-01-19 13:05:00,
2013-01-19 08:20:00,29.8,27.0,29.77,NNE,19,5.0,6.0,90,0.00,,,0.00,weatherlink.com 1.10,2013-01-19 13:20:00,
2013-01-19 08:35:00,29.7,27.0,29.77,NNE,19,0.0,2.0,90,0.00,,,0.00,weatherlink.com 1.10,2013-01-19 13:35:00,
2013-01-19 08:50:00,29.7,27.0,29.77,NNE,19,2.0,2.0,91,0.00,,,0.00,weatherlink.com 1.10,2013-01-19 13:50:00,
2013-01-19 09:05:00,29.6,27.0,29.77,NNE,19,2.0,3.0,91,0.00,,,0.00,weatherlink.com 1.10,2013-01-19 14:05:00,
2013-01-19 09:20:00,29.5,27.0,29.77,NNE,19,1.0,2.0,91,0.00,,,0.00,weatherlink.com 1.10,2013-01-19 14:20:00,
2013-01-19 09:35:00,29.5,27.0,29.77,NNE,19,2.0,3.0,91,0.00,,,0.00,weatherlink.com 1.10,2013-01-19 14:35:00,
2013-01-19 09:50:00,29.5,28.0,29.77,NNE,19,4.0,4.0,92,0.00,,,0.00,weatherlink.com 1.10,2013-01-19 14:50:00,
2013-01-19 10:05:00,29.6,28.0,29.76,ESE,111,5.0,7.0,92,0.00,,,0.00,weatherlink.com 1.10,2013-01-19 15:05:00,
2013-01-19 10:20:00,29.8,28.0,29.75,ESE,115,4.0,5.0,93,0.00,,,0.00,weatherlink.com 1.10,2013-01-19 15:20:00,
2013-01-19 10:36:00,30.1,28.0,29.75,ESE,119,3.0,7.0,93,0.00,,,0.00,weatherlink.com 1.10,2013-01-19 15:36:00,
2013-01-19 10:51:00,30.3,29.0,29.74,ESE,119,4.0,5.0,94,0.00,,,0.00,weatherlink.com 1.10,2013-01-19 15:51:00,
2013-01-19 11:06:00,30.9,29.0,29.73,SE,132,6.0,7.0,94,0.00,,,0.00,weatherlink.com 1.10,2013-01-19 16:06:00,
2013-01-19 11:21:00,31.2,30.0,29.72,SE,144,3.0,7.0,94,0.00,,,0.00,weatherlink.com 1.10,2013-01-19 16:21:00,
2013-01-19 11:36:00,31.9,31.0,29.70,South,182,5.0,7.0,95,0.00,,,0.00,weatherlink.com 1.10,2013-01-19 16:36:00,
2013-01-19 11:51:00,32.5,31.0,29.70,SW,215,5.0,9.0,95,0.00,,,0.00,weatherlink.com 1.10,2013-01-19 16:51:00,
2013-01-19 12:06:00,32.6,31.0,29.69,SW,214,7.0,12.0,95,0.00,,,0.00,weatherlink.com 1.10,2013-01-19 17:06:00,
2013-01-19 12:21:00,32.8,32.0,29.67,SSW,206,9.0,11.0,95,0.00,,,0.00,weatherlink.com 1.10,2013-01-19 17:21:00,
2013-01-19 12:36:00,33.1,32.0,29.65,SSW,201,9.0,13.0,95,0.00,,,0.00,weatherlink.com 1.10,2013-01-19 17:36:00,
2013-01-19 13:21:00,34.1,33.0,29.60,SSW,203,8.0,14.0,95,0.01,,,0.01,weatherlink.com 1.10,2013-01-19 18:21:00,
2013-01-19 13:36:00,34.5,33.0,29.59,South,174,12.0,12.0,94,0.01,,,0.01,weatherlink.com 1.10,2013-01-19 18:36:00,
2013-01-19 13:51:00,35.0,34.0,29.58,SSW,205,8.0,15.0,95,0.01,,,0.01,weatherlink.com 1.10,2013-01-19 18:51:00,
2013-01-19 14:06:00,35.4,34.0,29.57,SW,222,11.0,17.0,94,0.00,,,0.01,weatherlink.com 1.10,2013-01-19 19:06:00,
2013-01-19 14:51:00,35.8,34.0,29.53,SSW,203,11.0,19.0,94,0.00,,,0.01,weatherlink.com 1.10,2013-01-19 19:51:00,
2013-01-19 15:06:00,35.7,34.0,29.52,SSW,205,11.0,18.0,94,0.00,,,0.01,weatherlink.com 1.10,2013-01-19 20:06:00,
2013-01-19 15:51:00,36.1,35.0,29.49,SSW,205,12.0,14.0,95,0.00,,,0.01,weatherlink.com 1.10,2013-01-19 20:51:00,
2013-01-19 16:21:00,36.8,35.0,29.47,SW,225,13.0,16.0,94,0.00,,,0.01,weatherlink.com 1.10,2013-01-19 21:21:00,
2013-01-19 16:36:00,37.1,36.0,29.48,SW,225,13.0,16.0,94,0.00,,,0.01,weatherlink.com 1.10,2013-01-19 21:36:00,
2013-01-19 16:51:00,37.0,36.0,29.47,SW,229,13.0,14.0,94,0.00,,,0.01,weatherlink.com 1.10,2013-01-19 21:51:00,
2013-01-19 17:22:00,38.0,36.0,29.46,SW,214,11.0,20.0,93,0.00,,,0.01,weatherlink.com 1.10,2013-01-19 22:22:00,
2013-01-19 17:52:00,38.0,36.0,29.44,WSW,254,16.0,24.0,93,0.01,,,0.02,weatherlink.com 1.10,2013-01-19 22:52:00,
2013-01-19 18:07:00,37.8,36.0,29.43,WSW,241,15.0,22.0,94,0.01,,,0.02,weatherlink.com 1.10,2013-01-19 23:07:00,
2013-01-19 18:37:00,37.6,36.0,29.42,West,264,13.0,22.0,93,0.01,,,0.03,weatherlink.com 1.10,2013-01-19 23:37:00,
2013-01-19 18:52:00,37.7,36.0,29.42,WSW,242,12.0,22.0,93,0.01,,,0.03,weatherlink.com 1.10,2013-01-19 23:52:00,
2013-01-19 19:07:00,37.5,36.0,29.41,SW,229,18.0,24.0,93,0.02,,,0.04,weatherlink.com 1.10,2013-01-20 00:07:00,
2013-01-19 19:37:00,37.4,36.0,29.40,SW,214,20.0,24.0,94,0.02,,,0.05,weatherlink.com 1.10,2013-01-20 00:37:00,
2013-01-19 19:52:00,37.4,36.0,29.39,WSW,237,18.0,27.0,94,0.03,,,0.06,weatherlink.com 1.10,2013-01-20 00:52:00,
2013-01-19 20:07:00,37.4,36.0,29.38,WSW,250,16.0,24.0,94,0.03,,,0.07,weatherlink.com 1.10,2013-01-20 01:07:00,
2013-01-19 20:22:00,37.8,36.0,29.37,West,265,19.0,22.0,94,0.04,,,0.08,weatherlink.com 1.10,2013-01-20 01:22:00,
2013-01-19 20:52:00,33.4,32.0,29.40,WNW,300,16.0,31.0,95,0.02,,,0.08,weatherlink.com 1.10,2013-01-20 01:52:00,
2013-01-19 21:07:00,33.5,33.0,29.39,West,278,11.0,26.0,96,0.01,,,0.08,weatherlink.com 1.10,2013-01-20 02:07:00,
2013-01-19 21:22:00,33.9,33.0,29.39,West,279,13.0,21.0,96,0.00,,,0.08,weatherlink.com 1.10,2013-01-20 02:22:00,
2013-01-19 21:37:00,34.9,33.0,29.38,West,277,10.0,28.0,94,0.00,,,0.08,weatherlink.com 1.10,2013-01-20 02:37:00,
2013-01-19 21:52:00,35.1,33.0,29.38,NW,307,22.0,27.0,91,0.00,,,0.08,weatherlink.com 1.10,2013-01-20 02:52:00,
2013-01-19 22:22:00,34.0,31.0,29.39,NW,323,12.0,22.0,88,0.00,,,0.08,weatherlink.com 1.10,2013-01-20 03:22:00,
2013-01-19 22:37:00,33.9,30.0,29.39,NNW,344,16.0,25.0,84,0.00,,,0.08,weatherlink.com 1.10,2013-01-20 03:37:00,
2013-01-19 22:52:00,33.4,29.0,29.39,North,349,14.0,24.0,85,0.00,,,0.08,weatherlink.com 1.10,2013-01-20 03:52:00,
2013-01-19 23:07:00,32.7,28.0,29.38,NNW,329,20.0,28.0,82,0.00,,,0.08,weatherlink.com 1.10,2013-01-20 04:07:00,
2013-01-19 23:22:00,31.2,28.0,29.39,NE,42,18.0,35.0,87,0.00,,,0.08,weatherlink.com 1.10,2013-01-20 04:22:00,
2013-01-19 23:37:00,28.5,25.0,29.41,North,351,23.0,37.0,85,0.00,,,0.08,weatherlink.com 1.10,2013-01-20 04:37:00,
2013-01-19 23:52:00,27.7,23.0,29.43,North,350,21.0,38.0,82,0.00,,,0.08,weatherlink.com 1.10,2013-01-20 04:52:00,